createdAt,value
2022-12-01T00:01:45.010Z,100239.72
2022-12-01T00:04:13.738Z,100235.53
2022-12-01T00:06:42.357Z,100233.81
2022-12-01T00:09:21.210Z,100237.94
2022-12-01T00:11:50.215Z,100237.84
2022-12-01T00:14:20.200Z,100233.59
2022-12-01T00:16:49.000Z,100231.88
2022-12-01T00:19:17.928Z,100230.34
2022-12-01T00:21:47.407Z,100228.56
2022-12-01T00:24:16.099Z,100221.00
2022-12-01T00:26:44.710Z,100218.34
2022-12-01T00:29:13.941Z,100221.69
2022-12-01T00:31:44.219Z,100219.94
2022-12-01T00:34:23.657Z,100227.50
2022-12-01T00:36:52.804Z,100231.06
2022-12-01T00:39:22.619Z,100232.13
2022-12-01T00:41:51.149Z,100227.94
2022-12-01T00:44:19.849Z,100231.19
2022-12-01T00:46:49.821Z,100230.78
2022-12-01T00:49:18.438Z,100230.81
2022-12-01T00:51:47.578Z,100229.16
2022-12-01T00:54:16.362Z,100229.13
2022-12-01T00:56:45.010Z,100230.16
2022-12-01T00:59:13.760Z,100221.69
2022-12-01T01:01:42.463Z,100221.69
2022-12-01T01:04:12.469Z,100228.28
2022-12-01T01:06:43.798Z,100188.63
2022-12-01T01:09:13.118Z,100212.72
2022-12-01T01:11:41.738Z,100224.78
2022-12-01T01:14:12.681Z,100223.03
2022-12-01T01:16:41.430Z,100213.31
2022-12-01T01:19:10.150Z,100212.91
2022-12-01T01:21:40.643Z,100202.16
2022-12-01T01:24:09.550Z,100211.69
2022-12-01T01:26:39.237Z,100217.81
2022-12-01T01:29:08.933Z,100217.09
2022-12-01T01:31:37.869Z,100221.47
2022-12-01T01:34:06.372Z,100218.25
2022-12-01T01:36:35.765Z,100218.38
2022-12-01T01:39:05.830Z,100220.19
2022-12-01T01:41:34.540Z,100228.69
2022-12-01T01:44:04.264Z,100220.44
2022-12-01T01:46:33.324Z,100224.66
2022-12-01T01:49:04.942Z,100220.44
2022-12-01T01:51:38.600Z,100233.84
2022-12-01T01:54:15.923Z,100215.28
2022-12-01T01:56:45.923Z,100211.94
2022-12-01T01:59:18.799Z,100227.44
2022-12-01T02:01:53.667Z,100221.53
2022-12-01T02:04:22.412Z,100219.91
2022-12-01T02:06:50.956Z,100225.75
2022-12-01T02:09:22.011Z,100223.97
2022-12-01T02:12:04.949Z,100225.56
2022-12-01T02:14:49.072Z,100225.56
2022-12-01T02:17:30.230Z,100228.06
2022-12-01T02:20:30.808Z,100225.50
2022-12-01T02:23:23.381Z,100225.38
2022-12-01T02:26:12.165Z,100220.19
2022-12-01T02:29:04.252Z,100223.50
2022-12-01T02:31:41.312Z,100223.50
2022-12-01T02:34:16.249Z,100229.38
2022-12-01T02:36:50.701Z,100221.69
2022-12-01T02:39:25.680Z,100224.91
2022-12-01T02:42:01.930Z,100223.88
2022-12-01T02:44:35.040Z,100216.31
2022-12-01T02:47:12.748Z,100216.28
2022-12-01T02:49:46.724Z,100213.63
2022-12-01T02:52:20.020Z,100211.16
2022-12-01T02:54:49.872Z,100211.28
2022-12-01T02:57:18.732Z,100216.31
2022-12-01T02:59:52.938Z,100208.69
2022-12-01T03:02:35.002Z,100210.41
2022-12-01T03:05:10.898Z,100216.31
2022-12-01T03:07:52.037Z,100215.44
2022-12-01T03:10:29.132Z,100215.44
2022-12-01T03:13:11.548Z,100214.69
2022-12-01T03:15:50.646Z,100211.38
2022-12-01T03:18:30.960Z,100216.53
2022-12-01T03:21:06.280Z,100180.22
2022-12-01T03:23:39.222Z,100224.91
2022-12-01T03:26:12.395Z,100218.88
2022-12-01T03:28:47.722Z,100221.09
2022-12-01T03:31:21.204Z,100227.72
2022-12-01T03:33:56.857Z,100228.34
2022-12-01T03:36:30.491Z,100235.72
2022-12-01T03:39:04.847Z,100232.25
2022-12-01T03:41:39.471Z,100232.34
2022-12-01T03:44:13.563Z,100226.63
2022-12-01T03:46:49.027Z,100233.19
2022-12-01T03:49:20.758Z,100232.81
2022-12-01T03:51:57.189Z,100240.47
2022-12-01T03:54:35.368Z,100236.00
2022-12-01T03:57:07.471Z,100239.25
2022-12-01T03:59:38.941Z,100233.97
2022-12-01T04:02:07.992Z,100237.94
2022-12-01T04:04:38.253Z,100237.66
2022-12-01T04:07:06.989Z,100240.22
2022-12-01T04:09:35.556Z,100229.88
2022-12-01T04:12:14.236Z,100219.38
2022-12-01T04:14:42.808Z,100237.31
2022-12-01T04:17:11.449Z,100241.28
2022-12-01T04:19:41.386Z,100226.75
2022-12-01T04:22:10.068Z,100227.16
2022-12-01T04:24:39.351Z,100237.91
2022-12-01T04:27:08.109Z,100237.78
2022-12-01T04:29:36.651Z,100236.84
2022-12-01T04:32:05.578Z,100242.03
2022-12-01T04:34:34.499Z,100239.25
2022-12-01T04:37:06.208Z,100240.97
2022-12-01T04:39:34.880Z,100247.34
2022-12-01T04:42:03.938Z,100238.59
2022-12-01T04:44:34.948Z,100224.75
2022-12-01T04:47:04.118Z,100228.00
2022-12-01T04:49:32.934Z,100226.16
2022-12-01T04:52:01.685Z,100245.63
2022-12-01T04:54:31.949Z,100244.59
2022-12-01T04:57:01.125Z,100246.16
2022-12-01T04:59:29.742Z,100248.81
2022-12-01T05:01:58.555Z,100239.41
2022-12-01T05:04:28.098Z,100247.75
2022-12-01T05:06:56.810Z,100251.28
2022-12-01T05:09:25.307Z,100256.41
2022-12-01T05:11:55.400Z,100251.38
2022-12-01T05:14:24.048Z,100255.44
2022-12-01T05:16:52.661Z,100250.13
2022-12-01T05:19:31.193Z,100255.91
2022-12-01T05:21:59.849Z,100255.16
2022-12-01T05:24:28.480Z,100258.47
2022-12-01T05:26:58.522Z,100248.84
2022-12-01T05:29:27.179Z,100257.63
2022-12-01T05:31:55.679Z,100252.34
2022-12-01T05:34:24.863Z,100248.91
2022-12-01T05:36:53.431Z,100251.28
2022-12-01T05:39:22.020Z,100253.38
2022-12-01T05:41:50.596Z,100261.50
2022-12-01T05:44:21.423Z,100260.94
2022-12-01T05:46:50.412Z,100257.47
2022-12-01T05:49:19.003Z,100259.06
2022-12-01T05:51:47.682Z,100258.00
2022-12-01T05:54:16.550Z,100263.84
2022-12-01T05:56:45.184Z,100255.50
2022-12-01T05:59:13.704Z,100267.34
2022-12-01T06:01:45.708Z,100259.28
2022-12-01T06:04:14.356Z,100258.28
2022-12-01T06:06:42.984Z,100266.59
2022-12-01T06:09:11.877Z,100271.47
2022-12-01T06:11:40.295Z,100249.88
2022-12-01T06:14:08.946Z,100279.81
2022-12-01T06:16:37.525Z,100282.09
2022-12-01T06:19:07.624Z,100282.97
2022-12-01T06:21:36.238Z,100285.56
2022-12-01T06:24:05.133Z,100289.88
2022-12-01T06:26:33.784Z,100287.84
2022-12-01T06:29:02.253Z,100285.50
2022-12-01T06:31:30.920Z,100288.34
2022-12-01T06:33:59.474Z,100296.84
2022-12-01T06:36:29.532Z,100290.25
2022-12-01T06:38:58.646Z,100302.72
2022-12-01T06:41:27.254Z,100289.94
2022-12-01T06:43:55.852Z,100296.97
2022-12-01T06:46:24.718Z,100298.94
2022-12-01T06:48:53.574Z,100297.28
2022-12-01T06:51:22.066Z,100303.56
2022-12-01T06:53:54.695Z,100301.00
2022-12-01T06:56:24.225Z,100304.66
2022-12-01T06:58:53.935Z,100301.94
2022-12-01T07:01:24.561Z,100305.94
2022-12-01T07:03:55.248Z,100308.81
2022-12-01T07:06:24.199Z,100301.66
2022-12-01T07:08:54.725Z,100304.69
2022-12-01T07:11:23.593Z,100297.53
2022-12-01T07:13:56.780Z,100303.69
2022-12-01T07:16:25.412Z,100303.25
2022-12-01T07:18:54.519Z,100302.06
2022-12-01T07:21:24.086Z,100293.09
2022-12-01T07:23:54.068Z,100300.47
2022-12-01T07:26:22.718Z,100312.50
2022-12-01T07:28:51.267Z,100296.91
2022-12-01T07:31:21.052Z,100304.13
2022-12-01T07:33:49.370Z,100309.56
2022-12-01T07:36:18.098Z,100305.59
2022-12-01T07:38:46.670Z,100303.38
2022-12-01T07:41:19.303Z,100304.59
2022-12-01T07:43:51.065Z,100295.63
2022-12-01T07:46:23.495Z,100284.88
2022-12-01T07:48:53.425Z,100297.44
2022-12-01T07:51:23.194Z,100300.38
2022-12-01T07:53:52.690Z,100305.06
2022-12-01T07:56:23.549Z,100306.94
2022-12-01T07:58:52.275Z,100308.78
2022-12-01T08:01:22.968Z,100303.63
2022-12-01T08:03:53.874Z,100300.19
2022-12-01T08:06:24.101Z,100296.94
2022-12-01T08:08:53.122Z,100301.25
2022-12-01T08:11:24.690Z,100302.13
2022-12-01T08:13:54.373Z,100296.19
2022-12-01T08:16:24.459Z,100297.50
2022-12-01T08:18:54.233Z,100288.81
2022-12-01T08:21:24.990Z,100295.19
2022-12-01T08:23:55.853Z,100294.38
2022-12-01T08:26:27.497Z,100301.31
2022-12-01T08:28:56.182Z,100292.34
2022-12-01T08:31:26.520Z,100296.00
2022-12-01T08:33:55.307Z,100293.66
2022-12-01T08:36:25.320Z,100302.22
2022-12-01T08:38:55.998Z,100299.22
2022-12-01T08:41:26.563Z,100278.53
2022-12-01T08:43:58.453Z,100299.34
2022-12-01T08:46:35.413Z,100302.78
2022-12-01T08:49:07.081Z,100306.88
2022-12-01T08:51:36.530Z,100298.22
2022-12-01T08:54:05.124Z,100301.19
2022-12-01T08:56:37.418Z,100307.38
2022-12-01T08:59:06.503Z,100297.69
2022-12-01T09:01:35.049Z,100296.28
2022-12-01T09:04:09.277Z,100297.16
2022-12-01T09:06:41.480Z,100296.53
2022-12-01T09:09:11.880Z,100291.78
2022-12-01T09:11:44.044Z,100297.22
2022-12-01T09:14:13.071Z,100301.31
2022-12-01T09:16:41.554Z,100300.41
2022-12-01T09:19:12.991Z,100292.06
2022-12-01T09:21:43.105Z,100284.22
2022-12-01T09:24:13.623Z,100292.81
2022-12-01T09:26:44.124Z,100288.84
2022-12-01T09:29:15.042Z,100280.75
2022-12-01T09:31:43.932Z,100283.59
2022-12-01T09:34:15.130Z,100276.97
2022-12-01T09:36:44.072Z,100265.94
2022-12-01T09:39:15.188Z,100266.75
2022-12-01T09:41:49.125Z,100265.97
2022-12-01T09:44:30.893Z,100251.78
2022-12-01T09:47:06.935Z,100257.94
2022-12-01T09:49:46.104Z,100254.88
2022-12-01T09:52:18.099Z,100255.84
2022-12-01T09:54:47.910Z,100253.44
2022-12-01T09:57:26.993Z,100255.91
2022-12-01T09:59:56.523Z,100254.50
2022-12-01T10:02:33.229Z,100252.22
2022-12-01T10:05:07.254Z,100249.16
2022-12-01T10:07:41.380Z,100250.19
2022-12-01T10:10:15.786Z,100242.59
2022-12-01T10:12:48.180Z,100247.84
2022-12-01T10:15:28.750Z,100235.31
2022-12-01T10:18:14.760Z,100232.78
2022-12-01T10:20:51.291Z,100233.16
2022-12-01T10:23:36.622Z,100230.22
2022-12-01T10:26:14.309Z,100224.44
2022-12-01T10:29:11.841Z,100217.78
2022-12-01T10:31:51.324Z,100220.41
2022-12-01T10:34:24.518Z,100214.69
2022-12-01T10:36:53.156Z,100198.91
2022-12-01T10:39:26.804Z,100207.59
2022-12-01T10:42:07.606Z,100197.53
2022-12-01T10:44:38.214Z,100206.72
2022-12-01T10:47:17.546Z,100204.38
2022-12-01T10:49:46.145Z,100201.66
2022-12-01T10:52:33.363Z,100197.63
2022-12-01T10:55:02.724Z,100203.81
2022-12-01T10:57:32.653Z,100198.94
2022-12-01T11:00:09.144Z,100188.13
2022-12-01T11:02:38.399Z,100190.06
2022-12-01T11:05:20.495Z,100194.25
2022-12-01T11:07:50.803Z,100173.53
2022-12-01T11:10:22.574Z,100187.38
2022-12-01T11:12:57.177Z,100183.50
2022-12-01T11:15:29.800Z,100176.91
2022-12-01T11:18:00.333Z,100185.28
2022-12-01T11:20:33.729Z,100177.59
2022-12-01T11:23:25.913Z,100176.91
2022-12-01T11:26:02.339Z,100173.63
2022-12-01T11:28:32.136Z,100177.94
2022-12-01T11:31:06.416Z,100182.22
2022-12-01T11:33:45.235Z,100180.53
2022-12-01T11:36:26.895Z,100177.25
2022-12-01T11:39:02.372Z,100173.84
2022-12-01T11:41:35.748Z,100177.22
2022-12-01T11:44:12.826Z,100180.69
2022-12-01T11:47:01.655Z,100173.91
2022-12-01T11:49:47.063Z,100184.94
2022-12-01T11:52:25.283Z,100177.31
2022-12-01T11:54:58.937Z,100170.50
2022-12-01T11:57:34.806Z,100158.66
2022-12-01T12:00:14.052Z,100169.06
2022-12-01T12:02:56.176Z,100169.13
2022-12-01T12:09:04.034Z,100161.81
2022-12-01T12:11:41.981Z,100162.78
2022-12-01T12:14:28.328Z,100165.34
2022-12-01T12:17:17.683Z,100164.50
2022-12-01T12:20:11.747Z,100155.03
2022-12-01T12:22:54.998Z,100159.25
2022-12-01T12:25:31.989Z,100164.22
2022-12-01T12:28:14.690Z,100158.25
2022-12-01T12:30:52.280Z,100153.19
2022-12-01T12:33:47.467Z,100137.06
2022-12-01T12:36:28.852Z,100150.75
2022-12-01T12:39:16.412Z,100140.53
2022-12-01T12:41:48.036Z,100138.84
2022-12-01T12:44:40.606Z,100144.03
2022-12-01T12:47:23.367Z,100137.16
2022-12-01T12:50:02.955Z,100136.13
2022-12-01T12:52:35.930Z,100138.56
2022-12-01T12:55:13.058Z,100143.56
2022-12-01T12:57:46.549Z,100128.97
2022-12-01T13:00:17.932Z,100145.09
2022-12-01T13:02:50.969Z,100140.72
2022-12-01T13:05:24.669Z,100140.59
2022-12-01T13:07:58.343Z,100143.78
2022-12-01T13:10:34.534Z,100128.34
2022-12-01T13:13:19.046Z,100135.91
2022-12-01T13:15:49.579Z,100137.41
2022-12-01T13:18:29.160Z,100126.19
2022-12-01T13:20:59.377Z,100145.69
2022-12-01T13:23:29.960Z,100143.91
2022-12-01T13:26:02.989Z,100140.41
2022-12-01T13:28:38.327Z,100143.66
2022-12-01T13:31:10.280Z,100146.75
2022-12-01T13:33:54.959Z,100136.28
2022-12-01T13:36:45.665Z,100141.97
2022-12-01T13:39:21.598Z,100146.06
2022-12-01T13:42:02.112Z,100139.22
2022-12-01T13:44:36.306Z,100140.03
2022-12-01T13:47:17.407Z,100145.00
2022-12-01T13:49:48.872Z,100144.06
2022-12-01T13:52:37.281Z,100145.75
2022-12-01T13:55:28.509Z,100145.63
2022-12-01T13:58:18.902Z,100146.41
2022-12-01T14:00:47.910Z,100146.31
2022-12-01T14:03:38.901Z,100145.34
2022-12-01T14:06:21.890Z,100141.78
2022-12-01T14:08:51.780Z,100138.28
2022-12-01T14:11:25.822Z,100139.09
2022-12-01T14:13:58.549Z,100138.09
2022-12-01T14:16:46.598Z,100135.44
2022-12-01T14:19:31.648Z,100142.16
2022-12-01T14:22:01.338Z,100137.69
2022-12-01T14:24:35.151Z,100140.09
2022-12-01T14:27:07.157Z,100139.19
2022-12-01T14:29:38.690Z,100138.16
2022-12-01T14:32:25.222Z,100138.94
2022-12-01T14:35:06.478Z,100135.38
2022-12-01T14:37:47.645Z,100131.63
2022-12-01T14:40:26.518Z,100136.34
2022-12-01T14:43:09.018Z,100132.66
2022-12-01T14:45:42.818Z,100137.53
2022-12-01T14:48:15.506Z,100144.19
2022-12-01T14:50:49.393Z,100136.31
2022-12-01T14:53:25.487Z,100126.59
2022-12-01T14:55:57.729Z,100139.16
2022-12-01T14:58:30.295Z,100143.13
2022-12-01T15:01:05.280Z,100137.44
2022-12-01T15:03:39.867Z,100126.59
2022-12-01T15:06:09.358Z,100127.78
2022-12-01T15:08:43.636Z,100127.44
2022-12-01T15:11:25.733Z,100134.13
2022-12-01T15:13:57.472Z,100133.50
2022-12-01T15:16:27.448Z,100138.31
2022-12-01T15:18:56.177Z,100145.34
2022-12-01T15:21:27.588Z,100138.16
2022-12-01T15:23:59.406Z,100144.69
2022-12-01T15:26:32.460Z,100141.06
2022-12-01T15:29:17.585Z,100144.00
2022-12-01T15:31:48.782Z,100146.28
2022-12-01T15:34:23.540Z,100147.00
2022-12-01T15:36:53.617Z,100141.47
2022-12-01T15:39:30.359Z,100148.03
2022-12-01T15:42:00.995Z,100149.56
2022-12-01T15:44:34.129Z,100147.47
2022-12-01T15:47:32.675Z,100158.97
2022-12-01T15:50:01.256Z,100152.75
2022-12-01T15:52:30.495Z,100156.28
2022-12-01T15:55:04.502Z,100159.31
2022-12-01T15:57:34.295Z,100158.03
2022-12-01T16:00:05.649Z,100162.19
2022-12-01T16:02:41.267Z,100158.56
2022-12-01T16:05:19.277Z,100154.00
2022-12-01T16:08:12.807Z,100155.69
2022-12-01T16:10:38.307Z,100160.75
2022-12-01T16:13:28.778Z,100160.84
2022-12-01T16:15:59.112Z,100151.06
2022-12-01T16:18:34.033Z,100152.78
2022-12-01T16:21:06.860Z,100160.66
2022-12-01T16:23:35.518Z,100157.09
2022-12-01T16:26:09.915Z,100151.00
2022-12-01T16:28:38.817Z,100144.66
2022-12-01T16:31:22.520Z,100150.56
2022-12-01T16:34:13.816Z,100147.84
2022-12-01T16:36:51.516Z,100149.38
2022-12-01T16:39:20.340Z,100141.00
2022-12-01T16:41:49.089Z,100134.06
2022-12-01T16:44:28.616Z,100141.41
2022-12-01T16:47:00.098Z,100143.22
2022-12-01T16:49:28.767Z,100142.44
2022-12-01T16:51:58.149Z,100142.59
2022-12-01T16:54:28.486Z,100137.44
2022-12-01T16:56:57.110Z,100145.72
2022-12-01T16:59:26.436Z,100146.13
2022-12-01T17:01:55.150Z,100152.53
2022-12-01T17:04:28.028Z,100147.13
2022-12-01T17:06:56.787Z,100153.66
2022-12-01T17:09:25.336Z,100153.56
2022-12-01T17:11:56.498Z,100158.31
2022-12-01T17:14:25.700Z,100144.50
2022-12-01T17:16:54.445Z,100150.41
2022-12-01T17:19:23.134Z,100160.75
2022-12-01T17:21:56.107Z,100160.84
2022-12-01T17:24:26.100Z,100164.16
2022-12-01T17:26:54.568Z,100169.22
2022-12-01T17:29:23.596Z,100167.38
2022-12-01T17:31:54.226Z,100148.34
2022-12-01T17:34:23.129Z,100169.44
2022-12-01T17:36:56.095Z,100170.00
2022-12-01T17:39:24.907Z,100161.88
2022-12-01T17:41:55.546Z,100168.63
2022-12-01T17:44:24.269Z,100175.63
2022-12-01T17:46:52.943Z,100166.75
2022-12-01T17:49:21.920Z,100179.38
2022-12-01T17:51:50.643Z,100173.66
2022-12-01T17:54:21.177Z,100171.78
2022-12-01T17:56:49.740Z,100175.50
2022-12-01T17:59:18.367Z,100168.25
2022-12-01T18:01:47.134Z,100166.66
2022-12-01T18:04:15.706Z,100155.47
2022-12-01T18:06:46.016Z,100173.06
2022-12-01T18:09:20.256Z,100175.75
2022-12-01T18:11:49.455Z,100136.91
2022-12-01T18:14:18.434Z,100174.38
2022-12-01T18:16:47.665Z,100163.22
2022-12-01T18:19:16.419Z,100173.59
2022-12-01T18:21:45.737Z,100170.34
2022-12-01T18:24:14.518Z,100166.41
2022-12-01T18:26:44.537Z,100172.41
2022-12-01T18:29:16.283Z,100164.59
2022-12-01T18:31:45.149Z,100169.47
2022-12-01T18:34:14.120Z,100171.00
2022-12-01T18:36:43.031Z,100172.59
2022-12-01T18:39:12.997Z,100169.28
2022-12-01T18:41:42.228Z,100163.59
2022-12-01T18:44:12.770Z,100169.34
2022-12-01T18:46:41.518Z,100167.03
2022-12-01T18:49:10.799Z,100129.59
2022-12-01T18:51:39.968Z,100166.66
2022-12-01T18:54:10.158Z,100141.81
2022-12-01T18:56:38.792Z,100161.25
2022-12-01T18:59:08.568Z,100177.72
2022-12-01T19:01:40.936Z,100183.00
2022-12-01T19:04:10.947Z,100176.13
2022-12-01T19:06:41.977Z,100173.59
2022-12-01T19:09:13.319Z,100188.16
2022-12-01T19:11:42.649Z,100169.72
2022-12-01T19:14:15.719Z,100181.53
2022-12-01T19:16:46.522Z,100181.63
2022-12-01T19:19:15.372Z,100179.19
2022-12-01T19:21:45.490Z,100181.63
2022-12-01T19:24:14.567Z,100185.72
2022-12-01T19:26:43.125Z,100184.06
2022-12-01T19:29:12.287Z,100184.88
2022-12-01T19:31:41.166Z,100179.69
2022-12-01T19:34:11.181Z,100201.69
2022-12-01T19:36:39.943Z,100192.53
2022-12-01T19:39:08.637Z,100193.44
2022-12-01T19:41:38.852Z,100195.19
2022-12-01T19:44:07.667Z,100190.94
2022-12-01T19:46:36.399Z,100197.56
2022-12-01T19:49:06.759Z,100205.00
2022-12-01T19:51:39.214Z,100205.00
2022-12-01T19:54:09.533Z,100199.78
2022-12-01T19:56:38.145Z,100207.94
2022-12-01T19:59:08.282Z,100203.53
2022-12-01T20:01:36.874Z,100202.66
2022-12-01T20:04:05.965Z,100203.41
2022-12-01T20:06:37.889Z,100161.13
2022-12-01T20:09:10.221Z,100204.13
2022-12-01T20:11:38.893Z,100183.22
2022-12-01T20:14:08.853Z,100192.44
2022-12-01T20:16:39.008Z,100200.19
2022-12-01T20:19:07.762Z,100206.13
2022-12-01T20:21:42.814Z,100207.06
2022-12-01T20:24:14.832Z,100203.63
2022-12-01T20:26:46.135Z,100207.94
2022-12-01T20:29:17.012Z,100190.72
2022-12-01T20:31:46.908Z,100203.63
2022-12-01T20:34:18.671Z,100212.78
2022-12-01T20:36:49.444Z,100205.31
2022-12-01T20:39:18.031Z,100207.94
2022-12-01T20:41:47.405Z,100205.31
2022-12-01T20:44:16.819Z,100213.94
2022-12-01T20:46:47.860Z,100212.22
2022-12-01T20:49:18.231Z,100218.22
2022-12-01T20:51:48.746Z,100215.66
2022-12-01T20:54:27.715Z,100211.41
2022-12-01T20:56:57.949Z,100207.00
2022-12-01T20:59:26.786Z,100210.25
2022-12-01T21:01:56.009Z,100215.28
2022-12-01T21:04:24.587Z,100207.56
2022-12-01T21:06:57.064Z,100223.50
2022-12-01T21:09:27.955Z,100225.22
2022-12-01T21:12:08.898Z,100220.91
2022-12-01T21:14:39.484Z,100223.38
2022-12-01T21:17:19.955Z,100223.09
2022-12-01T21:19:54.989Z,100223.09
2022-12-01T21:22:26.294Z,100224.16
2022-12-01T21:25:03.064Z,100222.25
2022-12-01T21:27:31.947Z,100224.84
2022-12-01T21:30:00.427Z,100221.50
2022-12-01T21:32:32.627Z,100224.13
2022-12-01T21:35:09.395Z,100219.94
2022-12-01T21:37:39.955Z,100215.66
2022-12-01T21:40:16.870Z,100224.84
2022-12-01T21:42:45.587Z,100219.81
2022-12-01T21:45:24.090Z,100201.16
2022-12-01T21:47:52.637Z,100219.94
2022-12-01T21:50:25.581Z,100224.97
2022-12-01T21:52:55.554Z,100222.31
2022-12-01T21:55:37.374Z,100220.59
2022-12-01T21:58:22.998Z,100213.88
2022-12-01T22:00:51.884Z,100227.50
2022-12-01T22:03:28.507Z,100225.09
2022-12-01T22:08:55.674Z,100226.69
2022-12-01T22:11:25.835Z,100213.91
2022-12-01T22:14:01.072Z,100237.03
2022-12-01T22:16:32.229Z,100225.22
2022-12-01T22:19:02.979Z,100227.06
2022-12-01T22:21:38.260Z,100218.47
2022-12-01T22:24:28.483Z,100221.97
2022-12-01T22:27:22.667Z,100183.38
2022-12-01T22:29:53.788Z,100218.59
2022-12-01T22:32:35.187Z,100215.28
2022-12-01T22:35:21.894Z,100224.63
2022-12-01T22:37:51.806Z,100215.28
2022-12-01T22:40:34.676Z,100221.38
2022-12-01T22:43:26.021Z,100224.00
2022-12-01T22:46:16.278Z,100217.50
2022-12-01T22:48:47.117Z,100215.81
2022-12-01T22:51:43.953Z,100221.03
2022-12-01T22:54:28.317Z,100221.16
2022-12-01T22:57:04.282Z,100217.50
2022-12-01T22:59:36.830Z,100224.50
2022-12-01T23:02:19.385Z,100217.78
2022-12-01T23:04:53.598Z,100211.13
2022-12-01T23:07:35.466Z,100204.38
2022-12-01T23:10:09.721Z,100207.44
2022-12-01T23:12:38.831Z,100201.75
2022-12-01T23:15:30.711Z,100211.88
2022-12-01T23:18:07.661Z,100212.72
2022-12-01T23:20:36.773Z,100204.88
2022-12-01T23:23:09.784Z,100188.53
2022-12-01T23:25:38.409Z,100198.81
2022-12-01T23:28:08.902Z,100198.00
2022-12-01T23:30:42.851Z,100202.28
2022-12-01T23:33:18.292Z,100202.06
2022-12-01T23:35:49.704Z,100212.22
2022-12-01T23:38:20.771Z,100208.78
2022-12-01T23:40:51.015Z,100211.13
2022-12-01T23:43:22.840Z,100211.03
2022-12-01T23:46:01.735Z,100210.91
2022-12-01T23:48:35.461Z,100210.00
2022-12-01T23:51:04.191Z,100203.97
2022-12-01T23:53:34.369Z,100201.28
2022-12-01T23:56:08.174Z,100204.56
2022-12-01T23:58:36.971Z,100207.09
